createdAt,value
2023-08-15T00:17:49.898Z,100.00
2023-08-15T00:20:17.604Z,100.00
2023-08-15T00:22:44.929Z,100.00
2023-08-15T00:25:12.272Z,100.00
2023-08-15T00:27:39.661Z,100.00
2023-08-15T00:30:07.896Z,100.00
2023-08-15T00:32:37.198Z,100.00
2023-08-15T00:35:05.351Z,100.00
2023-08-15T00:37:33.453Z,100.00
2023-08-15T00:40:01.316Z,100.00
2023-08-15T00:42:28.681Z,100.00
2023-08-15T00:44:56.181Z,100.00
2023-08-15T00:47:23.771Z,100.00
2023-08-15T00:49:52.970Z,100.00
2023-08-15T00:52:20.328Z,100.00
2023-08-15T00:54:48.520Z,100.00
2023-08-15T00:57:16.258Z,100.00
2023-08-15T00:59:44.842Z,100.00
2023-08-15T01:02:12.897Z,100.00
2023-08-15T01:04:40.491Z,100.00
2023-08-15T01:07:10.382Z,100.00
2023-08-15T01:09:38.762Z,100.00
2023-08-15T01:12:26.405Z,100.00
2023-08-15T01:14:56.510Z,100.00
2023-08-15T01:17:28.191Z,100.00
2023-08-15T01:19:55.459Z,100.00
2023-08-15T01:22:24.695Z,100.00
2023-08-15T01:24:52.049Z,100.00
2023-08-15T01:27:20.007Z,100.00
2023-08-15T01:29:47.932Z,100.00
2023-08-15T01:32:29.411Z,100.00
2023-08-15T01:35:32.996Z,100.00
2023-08-15T01:38:16.499Z,100.00
2023-08-15T01:40:44.017Z,100.00
2023-08-15T01:43:11.691Z,100.00
2023-08-15T01:45:39.153Z,100.00
2023-08-15T01:48:07.203Z,100.00
2023-08-15T01:50:34.602Z,100.00
2023-08-15T01:53:03.382Z,100.00
2023-08-15T01:55:30.869Z,100.00
2023-08-15T01:57:58.231Z,100.00
2023-08-15T02:00:25.623Z,100.00
2023-08-15T02:02:53.048Z,100.00
2023-08-15T02:05:20.646Z,100.00
2023-08-15T02:07:48.089Z,100.00
2023-08-15T02:10:15.544Z,100.00
2023-08-15T02:12:42.909Z,100.00
2023-08-15T02:15:10.344Z,100.00
2023-08-15T02:17:37.730Z,100.00
2023-08-15T02:20:06.308Z,100.00
2023-08-15T02:22:33.783Z,100.00
2023-08-15T02:25:01.168Z,100.00
2023-08-15T02:27:28.544Z,100.00
2023-08-15T02:29:56.062Z,100.00
2023-08-15T02:32:23.485Z,100.00
2023-08-15T02:34:53.162Z,100.00
2023-08-15T02:37:20.646Z,100.00
2023-08-15T02:39:48.388Z,100.00
2023-08-15T02:42:15.844Z,100.00
2023-08-15T02:44:43.775Z,100.00
2023-08-15T02:47:11.113Z,100.00
2023-08-15T02:49:39.838Z,100.00
2023-08-15T02:52:07.298Z,100.00
2023-08-15T02:54:34.669Z,100.00
2023-08-15T02:57:02.267Z,100.00
2023-08-15T02:59:29.637Z,100.00
2023-08-15T03:01:57.063Z,100.00
2023-08-15T03:04:24.584Z,100.00
2023-08-15T03:06:52.048Z,100.00
2023-08-15T03:09:19.411Z,100.00
2023-08-15T03:11:46.810Z,100.00
2023-08-15T03:14:14.518Z,100.00
2023-08-15T03:16:42.000Z,100.00
2023-08-15T03:19:09.433Z,100.00
2023-08-15T03:21:36.822Z,100.00
2023-08-15T03:24:04.570Z,100.00
2023-08-15T03:26:31.989Z,100.00
2023-08-15T03:28:59.861Z,100.00
2023-08-15T03:31:29.244Z,100.00
2023-08-15T03:33:57.550Z,100.00
2023-08-15T03:36:25.134Z,100.00
2023-08-15T03:38:53.917Z,100.00
2023-08-15T03:41:21.820Z,100.00
2023-08-15T03:47:06.727Z,100.00
2023-08-15T03:49:35.424Z,100.00
2023-08-15T03:52:04.434Z,100.00
2023-08-15T03:54:33.041Z,100.00
2023-08-15T03:57:01.162Z,100.00
2023-08-15T03:59:28.757Z,100.00
2023-08-15T04:01:59.427Z,99.62
2023-08-15T04:04:27.641Z,95.95
2023-08-15T04:06:55.604Z,92.27
2023-08-15T04:09:22.930Z,88.79
2023-08-15T04:11:50.679Z,85.66
2023-08-15T04:14:18.024Z,82.11
2023-08-15T04:16:48.891Z,79.58
2023-08-15T04:19:17.287Z,77.83
2023-08-15T04:21:45.327Z,76.22
2023-08-15T04:24:12.902Z,74.92
2023-08-15T04:26:40.230Z,73.86
2023-08-15T04:29:07.604Z,72.86
2023-08-15T04:31:35.493Z,72.03
2023-08-15T04:34:02.966Z,71.23
2023-08-15T04:36:31.370Z,70.40
2023-08-15T04:38:59.021Z,68.99
2023-08-15T04:41:26.981Z,67.65
2023-08-15T04:43:54.765Z,66.97
2023-08-15T04:46:22.162Z,66.33
2023-08-15T04:48:49.696Z,65.36
2023-08-15T04:51:17.033Z,64.46
2023-08-15T04:53:44.741Z,63.33
2023-08-15T04:56:13.784Z,63.17
2023-08-15T04:58:41.212Z,63.87
2023-08-15T05:01:08.651Z,64.82
2023-08-15T05:03:36.776Z,66.57
2023-08-15T05:06:04.341Z,68.92
2023-08-15T05:08:31.696Z,70.79
2023-08-15T05:11:00.187Z,72.70
2023-08-15T05:13:27.992Z,74.59
2023-08-15T05:15:55.668Z,77.01
2023-08-15T05:18:23.350Z,79.05
2023-08-15T05:20:50.810Z,81.02
2023-08-15T05:23:18.674Z,83.00
2023-08-15T05:25:46.997Z,85.03
2023-08-15T05:28:15.747Z,86.13
2023-08-15T05:30:44.343Z,86.65
2023-08-15T05:33:12.713Z,86.85
2023-08-15T05:35:40.416Z,87.43
2023-08-15T05:38:07.705Z,88.04
2023-08-15T05:40:35.182Z,88.40
2023-08-15T05:43:03.527Z,88.61
2023-08-15T05:45:30.868Z,89.12
2023-08-15T05:48:00.631Z,89.83
2023-08-15T05:50:27.971Z,90.82
2023-08-15T05:52:55.291Z,91.31
2023-08-15T05:55:22.825Z,91.32
2023-08-15T05:57:50.255Z,91.74
2023-08-15T06:00:19.873Z,92.09
2023-08-15T06:02:47.250Z,92.21
2023-08-15T06:05:14.668Z,91.94
2023-08-15T06:07:45.111Z,92.44
2023-08-15T06:10:12.555Z,93.46
2023-08-15T06:12:40.050Z,93.81
2023-08-15T06:15:07.851Z,93.95
2023-08-15T06:17:35.445Z,94.06
2023-08-15T06:20:02.809Z,93.91
2023-08-15T06:22:30.119Z,93.20
2023-08-15T06:24:57.465Z,93.88
2023-08-15T06:27:24.937Z,95.38
2023-08-15T06:29:52.833Z,95.20
2023-08-15T06:32:30.248Z,94.92
2023-08-15T06:34:57.665Z,95.29
2023-08-15T06:37:25.108Z,97.09
2023-08-15T06:39:52.668Z,97.78
2023-08-15T06:42:19.984Z,99.61
2023-08-15T06:44:47.458Z,100.00
2023-08-15T06:47:15.181Z,100.00
2023-08-15T06:49:42.504Z,100.00
2023-08-15T06:52:09.881Z,100.00
2023-08-15T06:54:37.817Z,100.00
2023-08-15T06:57:08.660Z,99.49
2023-08-15T06:59:37.027Z,98.85
2023-08-15T07:02:07.131Z,97.69
2023-08-15T07:04:34.732Z,95.92
2023-08-15T07:07:02.118Z,95.63
2023-08-15T07:09:30.373Z,95.69
2023-08-15T07:11:57.865Z,94.28
2023-08-15T07:14:25.250Z,93.15
2023-08-15T07:16:52.858Z,90.92
2023-08-15T07:19:20.291Z,88.82
2023-08-15T07:21:47.922Z,88.36
2023-08-15T07:24:16.328Z,88.07
2023-08-15T07:26:44.296Z,86.48
2023-08-15T07:29:12.888Z,83.12
2023-08-15T07:31:40.308Z,82.88
2023-08-15T07:34:07.997Z,82.27
2023-08-15T07:36:35.815Z,82.98
2023-08-15T07:39:03.212Z,83.62
2023-08-15T07:41:31.191Z,83.72
2023-08-15T07:43:58.622Z,83.39
2023-08-15T07:46:25.949Z,83.73
2023-08-15T07:48:53.555Z,82.09
2023-08-15T07:51:20.946Z,82.37
2023-08-15T07:53:48.243Z,83.69
2023-08-15T07:56:15.860Z,83.96
2023-08-15T07:58:43.192Z,83.75
2023-08-15T08:01:10.591Z,83.21
2023-08-15T08:03:39.787Z,82.85
2023-08-15T08:06:12.230Z,82.16
2023-08-15T08:08:44.225Z,81.99
2023-08-15T08:11:11.885Z,81.45
2023-08-15T08:13:39.300Z,79.66
2023-08-15T08:16:06.725Z,78.64
2023-08-15T08:18:34.209Z,77.98
2023-08-15T08:21:02.075Z,76.86
2023-08-15T08:23:29.408Z,76.33
2023-08-15T08:25:57.822Z,75.19
2023-08-15T08:28:25.789Z,72.36
2023-08-15T08:30:53.159Z,67.58
2023-08-15T08:33:20.510Z,65.98
2023-08-15T08:35:47.905Z,65.27
2023-08-15T08:38:15.256Z,64.46
2023-08-15T08:40:43.355Z,65.28
2023-08-15T08:43:13.719Z,63.20
2023-08-15T08:45:42.545Z,62.93
2023-08-15T08:48:10.305Z,61.71
2023-08-15T08:50:37.892Z,61.63
2023-08-15T08:53:05.701Z,61.84
2023-08-15T08:55:34.487Z,61.30
2023-08-15T08:58:03.821Z,62.34
2023-08-15T09:00:33.158Z,61.92
2023-08-15T09:03:00.750Z,61.50
2023-08-15T09:05:28.711Z,61.07
2023-08-15T09:07:56.559Z,60.64
2023-08-15T09:10:24.320Z,59.08
2023-08-15T09:12:51.726Z,59.75
2023-08-15T09:15:19.548Z,59.85
2023-08-15T09:17:46.860Z,59.18
2023-08-15T09:20:18.564Z,59.84
2023-08-15T09:22:47.344Z,58.36
2023-08-15T09:25:21.248Z,58.18
2023-08-15T09:27:48.705Z,56.63
2023-08-15T09:30:18.114Z,56.31
2023-08-15T09:32:46.649Z,56.21
2023-08-15T09:35:15.648Z,55.49
2023-08-15T09:37:43.808Z,54.85
2023-08-15T09:40:13.283Z,53.73
2023-08-15T09:42:41.327Z,54.50
2023-08-15T09:45:09.961Z,52.63
2023-08-15T09:47:40.661Z,51.57
2023-08-15T09:50:08.624Z,51.12
2023-08-15T09:52:40.360Z,50.80
2023-08-15T09:55:11.918Z,52.06
2023-08-15T09:57:40.036Z,52.56
2023-08-15T10:00:14.861Z,51.79
2023-08-15T10:02:56.920Z,52.00
2023-08-15T10:05:24.318Z,50.64
2023-08-15T10:07:52.034Z,49.47
2023-08-15T10:10:19.492Z,48.25
2023-08-15T10:12:47.251Z,48.92
2023-08-15T10:15:14.652Z,49.00
2023-08-15T10:17:42.398Z,48.86
2023-08-15T10:20:13.623Z,48.28
2023-08-15T10:22:41.149Z,48.69
2023-08-15T10:25:24.518Z,47.36
2023-08-15T10:27:53.187Z,46.24
2023-08-15T10:30:31.694Z,45.59
2023-08-15T10:33:12.718Z,45.96
2023-08-15T10:35:57.547Z,43.85
2023-08-15T10:38:55.883Z,43.64
2023-08-15T10:41:35.345Z,44.10
2023-08-15T10:44:07.805Z,44.94
2023-08-15T10:46:36.634Z,45.47
2023-08-15T10:49:08.894Z,43.87
2023-08-15T10:51:40.226Z,42.18
2023-08-15T10:54:12.662Z,42.64
2023-08-15T10:56:41.123Z,42.64
2023-08-15T10:59:15.512Z,41.90
2023-08-15T11:01:44.614Z,42.05
2023-08-15T11:04:16.949Z,43.06
2023-08-15T11:06:48.487Z,42.11
2023-08-15T11:09:16.889Z,41.47
2023-08-15T11:11:45.478Z,41.58
2023-08-15T11:14:40.288Z,40.49
2023-08-15T11:17:09.272Z,41.27
2023-08-15T11:19:37.068Z,42.22
2023-08-15T11:22:04.515Z,41.53
2023-08-15T11:24:32.441Z,41.81
2023-08-15T11:27:00.087Z,41.35
2023-08-15T11:29:27.776Z,40.04
2023-08-15T11:31:59.960Z,41.36
2023-08-15T11:34:27.762Z,40.54
2023-08-15T11:36:55.164Z,40.64
2023-08-15T11:39:22.678Z,40.19
2023-08-15T11:41:53.471Z,40.50
2023-08-15T11:44:22.000Z,41.22
2023-08-15T11:46:54.877Z,40.32
2023-08-15T11:49:23.913Z,40.02
2023-08-15T11:51:52.271Z,39.95
2023-08-15T11:54:19.936Z,39.35
2023-08-15T11:56:51.655Z,38.51
2023-08-15T11:59:23.251Z,39.09
2023-08-15T12:01:50.779Z,39.79
2023-08-15T12:04:18.525Z,41.03
2023-08-15T12:06:46.029Z,41.53
2023-08-15T12:09:13.511Z,42.12
2023-08-15T12:11:41.004Z,40.84
2023-08-15T12:14:22.332Z,41.10
2023-08-15T12:16:49.869Z,40.55
2023-08-15T12:19:21.791Z,41.47
2023-08-15T12:21:54.185Z,39.62
2023-08-15T12:24:22.440Z,40.35
2023-08-15T12:26:49.812Z,39.89
2023-08-15T12:29:17.982Z,38.99
2023-08-15T12:31:46.335Z,39.89
2023-08-15T12:35:46.633Z,40.99
2023-08-15T12:38:14.418Z,41.78
2023-08-15T12:40:41.616Z,41.95
2023-08-15T12:43:08.695Z,41.09
2023-08-15T12:45:35.377Z,41.22
2023-08-15T12:48:02.575Z,42.05
2023-08-15T12:50:29.484Z,41.75
2023-08-15T12:52:56.995Z,40.29
2023-08-15T12:55:24.276Z,41.36
2023-08-15T12:57:51.170Z,41.34
2023-08-15T13:00:18.330Z,41.06
2023-08-15T13:02:45.318Z,40.35
2023-08-15T13:05:12.257Z,39.66
2023-08-15T13:07:39.486Z,39.61
2023-08-15T13:10:06.926Z,40.13
2023-08-15T13:12:33.932Z,40.86
2023-08-15T13:15:00.542Z,40.63
2023-08-15T13:17:27.490Z,41.56
2023-08-15T13:19:54.079Z,41.66
2023-08-15T13:22:20.912Z,41.98
2023-08-15T13:24:47.842Z,42.74
2023-08-15T13:27:14.962Z,42.14
2023-08-15T13:29:42.963Z,40.88
2023-08-15T13:32:11.200Z,40.96
2023-08-15T13:34:37.940Z,40.91
2023-08-15T13:37:04.692Z,41.31
2023-08-15T13:39:31.551Z,41.83
2023-08-15T13:41:58.606Z,42.30
2023-08-15T13:44:25.119Z,42.54
2023-08-15T13:46:51.803Z,42.52
2023-08-15T13:49:18.449Z,42.91
2023-08-15T13:51:45.601Z,43.52
2023-08-15T13:54:12.740Z,43.35
2023-08-15T13:56:39.401Z,43.75
2023-08-15T13:59:06.368Z,42.96
2023-08-15T14:01:34.013Z,42.01
2023-08-15T14:04:00.727Z,42.02
2023-08-15T14:06:28.923Z,42.90
2023-08-15T14:08:56.195Z,43.70
2023-08-15T14:11:22.968Z,44.57
2023-08-15T14:13:49.828Z,44.06
2023-08-15T14:16:16.705Z,43.32
2023-08-15T14:18:43.399Z,44.19
2023-08-15T14:21:13.371Z,44.62
2023-08-15T14:23:44.537Z,44.68
2023-08-15T14:26:11.510Z,44.09
2023-08-15T14:28:38.213Z,44.01
2023-08-15T14:31:05.682Z,43.41
2023-08-15T14:33:32.484Z,42.64
2023-08-15T14:35:59.067Z,42.69
2023-08-15T14:38:29.025Z,43.33
2023-08-15T14:40:55.681Z,43.25
2023-08-15T14:43:22.482Z,42.48
2023-08-15T14:45:49.290Z,42.84
2023-08-15T14:48:16.438Z,42.68
2023-08-15T14:50:43.342Z,43.05
2023-08-15T14:53:10.090Z,42.78
2023-08-15T14:55:36.682Z,43.34
2023-08-15T14:58:04.689Z,43.52
2023-08-15T15:00:32.022Z,42.73
2023-08-15T15:02:58.869Z,42.77
2023-08-15T15:05:25.686Z,42.97
2023-08-15T15:07:52.564Z,42.83
2023-08-15T15:10:19.355Z,42.24
2023-08-15T15:12:47.518Z,42.89
2023-08-15T15:15:14.642Z,42.88
2023-08-15T15:17:41.497Z,42.47
2023-08-15T15:20:08.656Z,42.55
2023-08-15T15:22:35.366Z,42.65
2023-08-15T15:25:01.958Z,42.76
2023-08-15T15:27:28.634Z,42.11
2023-08-15T15:29:55.373Z,42.54
2023-08-15T15:32:22.194Z,43.10
2023-08-15T15:34:49.537Z,43.60
2023-08-15T15:37:16.089Z,43.53
2023-08-15T15:39:43.598Z,44.00
2023-08-15T15:42:10.346Z,44.49
2023-08-15T15:44:37.209Z,44.64
2023-08-15T15:47:04.332Z,45.35
2023-08-15T15:49:31.126Z,46.24
2023-08-15T15:51:58.052Z,46.92
2023-08-15T15:54:24.623Z,46.73
2023-08-15T15:56:51.253Z,46.83
2023-08-15T15:59:18.056Z,47.55
2023-08-15T16:01:44.706Z,47.93
2023-08-15T16:04:12.181Z,48.58
2023-08-15T16:06:38.845Z,49.50
2023-08-15T16:09:05.552Z,49.98
2023-08-15T16:11:32.655Z,50.21
2023-08-15T16:13:59.299Z,49.89
2023-08-15T16:16:26.040Z,50.02
2023-08-15T16:18:53.557Z,50.13
2023-08-15T16:21:22.061Z,50.46
2023-08-15T16:23:49.297Z,50.84
2023-08-15T16:26:17.994Z,51.11
2023-08-15T16:28:45.749Z,51.60
2023-08-15T16:31:12.690Z,52.34
2023-08-15T16:33:39.485Z,52.48
2023-08-15T16:36:06.144Z,52.73
2023-08-15T16:38:32.897Z,53.67
2023-08-15T16:40:59.537Z,54.86
2023-08-15T16:43:27.459Z,56.37
2023-08-15T16:45:53.940Z,57.31
2023-08-15T16:48:20.629Z,58.36
2023-08-15T16:50:47.276Z,58.80
2023-08-15T16:53:13.831Z,58.75
2023-08-15T16:55:40.379Z,58.86
2023-08-15T16:58:07.105Z,59.02
2023-08-15T17:00:33.926Z,59.32
2023-08-15T17:03:00.906Z,59.74
2023-08-15T17:05:27.883Z,60.35
2023-08-15T17:07:54.608Z,61.41
2023-08-15T17:10:21.521Z,62.36
2023-08-15T17:12:48.377Z,62.68
2023-08-15T17:15:16.078Z,62.84
2023-08-15T17:17:42.985Z,62.58
2023-08-15T17:20:10.799Z,62.62
2023-08-15T17:22:38.441Z,62.74
2023-08-15T17:25:06.023Z,63.13
2023-08-15T17:27:32.701Z,63.35
2023-08-15T17:29:59.408Z,63.83
2023-08-15T17:32:26.851Z,64.53
2023-08-15T17:34:53.670Z,64.93
2023-08-15T17:37:20.200Z,65.25
2023-08-15T17:39:46.789Z,65.42
2023-08-15T17:42:13.604Z,65.88
2023-08-15T17:44:40.375Z,66.27
2023-08-15T17:47:07.537Z,66.71
2023-08-15T17:49:34.356Z,67.36
2023-08-15T17:52:00.957Z,68.44
2023-08-15T17:54:27.693Z,69.19
2023-08-15T17:56:54.356Z,69.72
2023-08-15T17:59:21.034Z,70.18
2023-08-15T18:01:48.124Z,70.31
2023-08-15T18:04:15.154Z,70.67
2023-08-15T18:06:41.841Z,70.70
2023-08-15T18:09:09.905Z,70.71
2023-08-15T18:11:36.691Z,71.95
2023-08-15T18:14:04.631Z,72.87
2023-08-15T18:16:31.569Z,74.62
2023-08-15T18:18:58.292Z,75.45
2023-08-15T18:21:24.939Z,75.34
2023-08-15T18:23:51.549Z,75.27
2023-08-15T18:26:18.504Z,76.32
2023-08-15T18:28:45.359Z,77.91
2023-08-15T18:31:12.124Z,78.83
2023-08-15T18:33:39.074Z,79.32
2023-08-15T18:36:05.688Z,79.25
2023-08-15T18:38:34.100Z,79.34
2023-08-15T18:41:01.659Z,79.55
2023-08-15T18:43:28.349Z,80.21
2023-08-15T18:45:55.068Z,80.86
2023-08-15T18:48:23.790Z,81.94
2023-08-15T18:50:50.496Z,82.69
2023-08-15T18:53:17.242Z,82.81
2023-08-15T18:55:44.151Z,82.33
2023-08-15T18:58:10.936Z,82.13
2023-08-15T19:00:38.306Z,82.77
2023-08-15T19:03:05.517Z,83.36
2023-08-15T19:05:32.301Z,82.41
2023-08-15T19:07:59.372Z,82.15
2023-08-15T19:10:27.872Z,82.72
2023-08-15T19:12:54.688Z,85.10
2023-08-15T19:15:21.932Z,86.43
2023-08-15T19:17:50.406Z,87.76
2023-08-15T19:20:19.024Z,88.61
2023-08-15T19:22:46.167Z,88.17
2023-08-15T19:25:13.830Z,87.93
2023-08-15T19:27:40.403Z,88.65
2023-08-15T19:30:07.857Z,90.51
2023-08-15T19:32:34.816Z,91.87
2023-08-15T19:35:01.906Z,91.89
2023-08-15T19:37:36.913Z,92.11
2023-08-15T19:40:07.058Z,91.82
2023-08-15T19:42:37.876Z,91.90
2023-08-15T19:45:05.130Z,92.57
2023-08-15T19:47:31.970Z,94.15
2023-08-15T19:49:58.786Z,94.93
2023-08-15T19:52:25.873Z,96.08
2023-08-15T19:54:52.858Z,97.03
2023-08-15T19:57:19.511Z,97.08
2023-08-15T19:59:46.113Z,97.73
2023-08-15T20:02:14.468Z,98.64
2023-08-15T20:04:41.726Z,98.91
2023-08-15T20:07:08.423Z,99.90
2023-08-15T20:09:35.149Z,100.00
2023-08-15T20:12:02.444Z,100.00
2023-08-15T20:14:29.375Z,100.00
2023-08-15T20:16:56.093Z,100.00
2023-08-15T20:19:22.717Z,100.00
2023-08-15T20:21:51.259Z,100.00
2023-08-15T20:24:17.936Z,100.00
2023-08-15T20:26:46.097Z,100.00
2023-08-15T20:29:12.922Z,100.00
2023-08-15T20:31:39.767Z,100.00
2023-08-15T20:34:07.010Z,100.00
2023-08-15T20:36:33.819Z,100.00
2023-08-15T20:39:01.504Z,100.00
2023-08-15T20:41:28.213Z,100.00
2023-08-15T20:43:55.002Z,100.00
2023-08-15T20:46:22.087Z,100.00
2023-08-15T20:48:48.749Z,100.00
2023-08-15T20:51:15.338Z,100.00
2023-08-15T20:53:41.915Z,100.00
2023-08-15T20:56:10.323Z,100.00
2023-08-15T20:58:37.041Z,100.00
2023-08-15T21:01:03.738Z,100.00
2023-08-15T21:03:31.351Z,100.00
2023-08-15T21:05:58.421Z,100.00
2023-08-15T21:08:25.137Z,100.00
2023-08-15T21:10:51.728Z,100.00
2023-08-15T21:13:18.457Z,100.00
2023-08-15T21:15:45.550Z,100.00
2023-08-15T21:18:12.196Z,100.00
2023-08-15T21:20:41.236Z,100.00
2023-08-15T21:23:07.931Z,100.00
2023-08-15T21:25:35.518Z,100.00
2023-08-15T21:28:02.379Z,100.00
2023-08-15T21:30:29.091Z,100.00
2023-08-15T21:32:55.794Z,100.00
2023-08-15T21:35:22.594Z,100.00
2023-08-15T21:37:49.177Z,100.00
2023-08-15T21:40:16.027Z,100.00
2023-08-15T21:42:42.993Z,100.00
2023-08-15T21:45:09.903Z,100.00
2023-08-15T21:47:36.606Z,100.00
2023-08-15T21:50:04.071Z,100.00
2023-08-15T21:52:30.870Z,100.00
2023-08-15T21:54:57.590Z,100.00
2023-08-15T21:57:24.613Z,100.00
2023-08-15T21:59:51.415Z,100.00
2023-08-15T22:02:18.046Z,100.00
2023-08-15T22:04:46.001Z,100.00
2023-08-15T22:07:12.505Z,100.00
2023-08-15T22:09:39.545Z,100.00
2023-08-15T22:12:06.409Z,100.00
2023-08-15T22:14:33.096Z,100.00
2023-08-15T22:16:59.658Z,100.00
2023-08-15T22:19:26.366Z,100.00
2023-08-15T22:21:53.061Z,100.00
2023-08-15T22:24:19.676Z,100.00
2023-08-15T22:26:47.882Z,100.00
2023-08-15T22:29:16.236Z,100.00
2023-08-15T22:31:42.935Z,100.00
2023-08-15T22:34:09.573Z,100.00
2023-08-15T22:36:36.284Z,100.00
2023-08-15T22:39:03.034Z,100.00
2023-08-15T22:41:29.699Z,100.00
2023-08-15T22:43:56.278Z,100.00
2023-08-15T22:46:22.853Z,100.00
2023-08-15T22:48:49.613Z,100.00
2023-08-15T22:51:16.163Z,100.00
2023-08-15T22:53:45.272Z,100.00
2023-08-15T22:56:12.154Z,100.00
2023-08-15T22:58:38.840Z,100.00
2023-08-15T23:01:06.319Z,100.00
2023-08-15T23:03:33.344Z,100.00
2023-08-15T23:06:05.242Z,100.00
2023-08-15T23:08:32.948Z,100.00
2023-08-15T23:10:59.522Z,100.00
2023-08-15T23:13:26.150Z,100.00
2023-08-15T23:15:52.825Z,100.00
2023-08-15T23:18:19.534Z,100.00
2023-08-15T23:20:46.070Z,100.00
2023-08-15T23:23:14.036Z,100.00
2023-08-15T23:25:40.634Z,100.00
2023-08-15T23:28:07.899Z,100.00
2023-08-15T23:30:35.883Z,100.00
2023-08-15T23:33:03.856Z,100.00
2023-08-15T23:35:30.639Z,100.00
2023-08-15T23:37:57.158Z,100.00
2023-08-15T23:40:23.738Z,100.00
2023-08-15T23:42:50.308Z,100.00
2023-08-15T23:45:17.054Z,100.00
2023-08-15T23:47:43.780Z,100.00
2023-08-15T23:50:12.250Z,100.00
2023-08-15T23:52:39.010Z,100.00
2023-08-15T23:55:06.320Z,100.00
2023-08-15T23:57:33.047Z,100.00
2023-08-15T23:59:59.563Z,100.00
